Laukaa, Finland
Kieli:  Suomi
CurCond
Päivitetty19/01/2022 19:16 
 

Lähistön Lentoasemien Säätiloja:

 

EFJY - Jyvaskyla (mil/C,) Finland
Etäisyys Sääasemalta: PKo 21km
Päivitetty: 19/01/2022 18:50
Pilvistä
Pilvistä
 Tuulen suunta Lo
Tuuli: Lo 15 km/h
Lämpötila: 1°C
Tuulen purevuus: -3°C
Kastepiste: 0°C
Ilmankosteus: 93%
Ilmanpaine: 986 hPa
Pilvisyys: Pilvistä
Näkyvyys: 10 km
Pilvisyystiedot: Pilvistä 274 m
2022/01/19 16:50 EFJY 191650Z AUTO 22008KT 190V260 9999 OVC009 01/M00 Q0986
EFHA - Halli (fin-Afb), Finland
Etäisyys Sääasemalta: Lo 56km
Päivitetty: 19/01/2022 18:50
Pilvistä
Pilvistä
 Tuulen suunta LLo
Tuuli: LLo 24 km/h
Lämpötila: 2°C
Tuulen purevuus: -3°C
Kastepiste: 0°C
Ilmankosteus: 87%
Ilmanpaine: 987 hPa
Pilvisyys: Pilvistä
Näkyvyys: 10 km
Pilvisyystiedot: Pilvistä 305 m
2022/01/19 16:50 EFHA 191650Z AUTO 24013KT 9999 OVC010 02/00 Q0987
EFMI - Mikkeli, Finland
Etäisyys Sääasemalta: IKa 105km
Päivitetty: 19/01/2022 18:50
Heikkoa sadetta, Kuurottaisia sateita, Pilvistä
Heikkoa sadetta, Kuurottaisia sateita, Pilvistä
 Tuulen suunta Lo
Tuuli: Lo 15 km/h
Lämpötila: 2°C
Tuulen purevuus: -2°C
Kastepiste: 0°C
Ilmankosteus: 87%
Ilmanpaine: 988 hPa
Yhteenveto: Heikkoa sadetta, Kuurottaisia sateita
Pilvisyys: Pilvistä
Näkyvyys: 10 km
Pilvisyystiedot: Pilvistä 274 m
2022/01/19 16:50 EFMI 191650Z AUTO 22008KT 190V250 9999 -SHRA OVC009 02/00 Q0988
 
EFTP - Tampere/Pirkkala, Finland
Etäisyys Sääasemalta: Lo 135km
Päivitetty: 19/01/2022 18:50
Pilvistä
Pilvistä
 Tuulen suunta Lo
Tuuli: Lo 24 km/h
Lämpötila: 3°C
Tuulen purevuus: -2°C
Kastepiste: 1°C
Ilmankosteus: 87%
Ilmanpaine: 989 hPa
Pilvisyys: Pilvistä
Näkyvyys: 10 km
Pilvisyystiedot: Pilvistä 335 m
2022/01/19 16:50 EFTP 191650Z AUTO 23013KT 9999 OVC011 03/01 Q0989
EFKU - Kuopio (mil/Civ), Finland
Etäisyys Sääasemalta: Ko 146km
Päivitetty: 19/01/2022 18:50
Heikkoa sadetta, Kuurottaisia sateita, Pilvistä
Heikkoa sadetta, Kuurottaisia sateita, Pilvistä
 Tuulen suunta ELo
Tuuli: ELo 15 km/h
Lämpötila: 1°C
Tuulen purevuus: -3°C
Kastepiste: 0°C
Ilmankosteus: 93%
Ilmanpaine: 985 hPa
Yhteenveto: Heikkoa sadetta, Kuurottaisia sateita
Pilvisyys: Pilvistä
Näkyvyys: 10 km
Pilvisyystiedot: Pilvistä 244 m
2022/01/19 16:50 EFKU 191650Z AUTO 21008KT 180V250 9999 -SHRA OVC008 01/M00 Q0985
EFSI - Seinajoki-Ilmajo, Finland
Etäisyys Sääasemalta: LLu 149km
Päivitetty: 19/01/2022 18:50
Selkeätä
Selkeätä
 Tuulen suunta ELo
Tuuli: ELo 17 km/h
Lämpötila: 2°C
Tuulen purevuus: -2°C
Kastepiste: -1°C
Ilmankosteus: 81%
Ilmanpaine: 985 hPa
Yhteenveto: Selkeätä
Näkyvyys: Enemmän Kuin 10 km
2022/01/19 16:50 EFSI 191650Z AUTO 21009KT CAVOK 02/M01 Q0985